sensor_id;sensor_type;location;lat;lon;timestamp;P1;durP1;ratioP1;P2;durP2;ratioP2
1026;SDS011;502;48.746;9.214;2023-04-06T00:00:16;11.90;;;10.57;;
1026;SDS011;502;48.746;9.214;2023-04-06T00:02:43;14.60;;;10.37;;
1026;SDS011;502;48.746;9.214;2023-04-06T00:05:10;13.50;;;10.20;;
1026;SDS011;502;48.746;9.214;2023-04-06T00:07:37;12.20;;;10.10;;
1026;SDS011;502;48.746;9.214;2023-04-06T00:10:04;15.93;;;10.83;;
1026;SDS011;502;48.746;9.214;2023-04-06T00:12:31;13.70;;;10.53;;
1026;SDS011;502;48.746;9.214;2023-04-06T00:15:00;14.30;;;10.40;;
1026;SDS011;502;48.746;9.214;2023-04-06T00:17:27;12.90;;;10.83;;
1026;SDS011;502;48.746;9.214;2023-04-06T00:19:54;12.33;;;9.70;;
1026;SDS011;502;48.746;9.214;2023-04-06T00:22:21;12.73;;;10.00;;
1026;SDS011;502;48.746;9.214;2023-04-06T00:24:48;11.63;;;9.20;;
1026;SDS011;502;48.746;9.214;2023-04-06T00:27:14;11.63;;;9.37;;
1026;SDS011;502;48.746;9.214;2023-04-06T00:29:41;12.47;;;10.10;;
1026;SDS011;502;48.746;9.214;2023-04-06T00:32:11;12.17;;;10.27;;
1026;SDS011;502;48.746;9.214;2023-04-06T00:34:38;17.00;;;11.07;;
1026;SDS011;502;48.746;9.214;2023-04-06T00:37:05;14.90;;;10.60;;
1026;SDS011;502;48.746;9.214;2023-04-06T00:39:32;15.03;;;11.03;;
1026;SDS011;502;48.746;9.214;2023-04-06T00:41:59;16.87;;;11.20;;
1026;SDS011;502;48.746;9.214;2023-04-06T00:44:25;13.30;;;10.20;;
1026;SDS011;502;48.746;9.214;2023-04-06T00:46:53;13.20;;;10.80;;
1026;SDS011;502;48.746;9.214;2023-04-06T00:49:21;13.70;;;10.60;;
1026;SDS011;502;48.746;9.214;2023-04-06T00:51:48;15.50;;;10.07;;
1026;SDS011;502;48.746;9.214;2023-04-06T00:54:15;12.97;;;9.87;;
1026;SDS011;502;48.746;9.214;2023-04-06T00:56:43;13.77;;;9.73;;
1026;SDS011;502;48.746;9.214;2023-04-06T00:59:10;14.93;;;10.27;;
1026;SDS011;502;48.746;9.214;2023-04-06T01:01:37;14.10;;;10.17;;
1026;SDS011;502;48.746;9.214;2023-04-06T01:04:17;12.80;;;9.50;;
1026;SDS011;502;48.746;9.214;2023-04-06T01:06:45;12.90;;;9.90;;
1026;SDS011;502;48.746;9.214;2023-04-06T01:09:12;15.07;;;10.40;;
1026;SDS011;502;48.746;9.214;2023-04-06T01:11:39;11.73;;;10.20;;
1026;SDS011;502;48.746;9.214;2023-04-06T01:14:10;13.23;;;9.73;;
1026;SDS011;502;48.746;9.214;2023-04-06T01:17:03;14.10;;;9.40;;
1026;SDS011;502;48.746;9.214;2023-04-06T01:19:32;11.17;;;9.53;;
1026;SDS011;502;48.746;9.214;2023-04-06T01:22:01;12.90;;;9.07;;
1026;SDS011;502;48.746;9.214;2023-04-06T01:24:32;13.23;;;9.33;;
1026;SDS011;502;48.746;9.214;2023-04-06T01:27:20;14.20;;;9.87;;
1026;SDS011;502;48.746;9.214;2023-04-06T01:30:06;11.80;;;8.90;;
1026;SDS011;502;48.746;9.214;2023-04-06T01:32:45;11.70;;;9.50;;
1026;SDS011;502;48.746;9.214;2023-04-06T01:35:15;18.07;;;10.30;;
1026;SDS011;502;48.746;9.214;2023-04-06T01:37:51;12.57;;;9.57;;
1026;SDS011;502;48.746;9.214;2023-04-06T01:40:27;12.30;;;9.30;;
1026;SDS011;502;48.746;9.214;2023-04-06T01:42:53;12.37;;;9.80;;
1026;SDS011;502;48.746;9.214;2023-04-06T01:45:29;13.67;;;10.40;;
1026;SDS011;502;48.746;9.214;2023-04-06T01:48:03;13.83;;;9.83;;
1026;SDS011;502;48.746;9.214;2023-04-06T01:50:31;13.77;;;10.23;;
1026;SDS011;502;48.746;9.214;2023-04-06T01:52:57;13.00;;;9.90;;
1026;SDS011;502;48.746;9.214;2023-04-06T01:55:28;11.93;;;8.93;;
1026;SDS011;502;48.746;9.214;2023-04-06T01:58:24;12.30;;;8.93;;
1026;SDS011;502;48.746;9.214;2023-04-06T02:00:51;15.60;;;10.57;;
1026;SDS011;502;48.746;9.214;2023-04-06T02:03:19;13.53;;;9.70;;
1026;SDS011;502;48.746;9.214;2023-04-06T02:05:49;13.77;;;10.93;;
1026;SDS011;502;48.746;9.214;2023-04-06T02:08:25;14.20;;;10.03;;
1026;SDS011;502;48.746;9.214;2023-04-06T02:10:53;16.10;;;11.40;;
1026;SDS011;502;48.746;9.214;2023-04-06T02:13:32;13.63;;;11.03;;
1026;SDS011;502;48.746;9.214;2023-04-06T02:15:59;15.20;;;10.60;;
1026;SDS011;502;48.746;9.214;2023-04-06T02:18:28;12.70;;;10.53;;
1026;SDS011;502;48.746;9.214;2023-04-06T02:20:54;14.10;;;10.90;;
1026;SDS011;502;48.746;9.214;2023-04-06T02:23:22;12.20;;;10.00;;
1026;SDS011;502;48.746;9.214;2023-04-06T02:25:49;13.07;;;9.70;;
1026;SDS011;502;48.746;9.214;2023-04-06T02:28:17;14.90;;;11.07;;
1026;SDS011;502;48.746;9.214;2023-04-06T02:30:44;14.03;;;10.47;;
1026;SDS011;502;48.746;9.214;2023-04-06T02:33:12;14.40;;;10.57;;
1026;SDS011;502;48.746;9.214;2023-04-06T02:35:43;13.73;;;10.87;;
1026;SDS011;502;48.746;9.214;2023-04-06T02:38:10;12.30;;;10.60;;
1026;SDS011;502;48.746;9.214;2023-04-06T02:40:37;15.07;;;10.50;;
1026;SDS011;502;48.746;9.214;2023-04-06T02:43:14;13.57;;;10.80;;
1026;SDS011;502;48.746;9.214;2023-04-06T02:45:44;15.07;;;10.13;;
1026;SDS011;502;48.746;9.214;2023-04-06T02:48:11;15.67;;;9.67;;
1026;SDS011;502;48.746;9.214;2023-04-06T02:50:38;17.67;;;10.10;;
1026;SDS011;502;48.746;9.214;2023-04-06T02:53:06;12.43;;;9.40;;
1026;SDS011;502;48.746;9.214;2023-04-06T02:55:35;13.50;;;9.80;;
1026;SDS011;502;48.746;9.214;2023-04-06T02:58:02;12.90;;;9.30;;
1026;SDS011;502;48.746;9.214;2023-04-06T03:00:38;13.17;;;10.07;;
1026;SDS011;502;48.746;9.214;2023-04-06T03:03:05;12.60;;;9.67;;
1026;SDS011;502;48.746;9.214;2023-04-06T03:05:32;12.13;;;9.47;;
1026;SDS011;502;48.746;9.214;2023-04-06T03:07:59;12.90;;;10.23;;
1026;SDS011;502;48.746;9.214;2023-04-06T03:10:39;12.50;;;9.20;;
1026;SDS011;502;48.746;9.214;2023-04-06T03:13:06;12.30;;;9.33;;
1026;SDS011;502;48.746;9.214;2023-04-06T03:15:45;12.67;;;9.97;;
1026;SDS011;502;48.746;9.214;2023-04-06T03:18:17;13.40;;;9.70;;
1026;SDS011;502;48.746;9.214;2023-04-06T03:20:47;11.83;;;9.13;;
1026;SDS011;502;48.746;9.214;2023-04-06T03:23:15;11.43;;;9.20;;
1026;SDS011;502;48.746;9.214;2023-04-06T03:25:44;12.67;;;8.20;;
1026;SDS011;502;48.746;9.214;2023-04-06T03:28:15;13.20;;;9.03;;
1026;SDS011;502;48.746;9.214;2023-04-06T03:30:50;14.30;;;10.43;;
1026;SDS011;502;48.746;9.214;2023-04-06T03:33:23;15.23;;;9.50;;
1026;SDS011;502;48.746;9.214;2023-04-06T03:35:53;12.07;;;8.90;;
1026;SDS011;502;48.746;9.214;2023-04-06T03:38:23;11.70;;;9.07;;
1026;SDS011;502;48.746;9.214;2023-04-06T03:40:50;13.10;;;9.53;;
1026;SDS011;502;48.746;9.214;2023-04-06T03:43:21;13.20;;;9.53;;
1026;SDS011;502;48.746;9.214;2023-04-06T03:45:49;12.77;;;9.70;;
1026;SDS011;502;48.746;9.214;2023-04-06T03:48:16;10.73;;;9.60;;
1026;SDS011;502;48.746;9.214;2023-04-06T03:50:43;12.37;;;9.27;;
1026;SDS011;502;48.746;9.214;2023-04-06T03:53:10;13.10;;;9.60;;
1026;SDS011;502;48.746;9.214;2023-04-06T03:55:37;14.63;;;10.60;;
1026;SDS011;502;48.746;9.214;2023-04-06T03:58:04;16.27;;;10.70;;
1026;SDS011;502;48.746;9.214;2023-04-06T04:00:31;12.97;;;10.10;;
1026;SDS011;502;48.746;9.214;2023-04-06T04:03:00;13.00;;;10.23;;
1026;SDS011;502;48.746;9.214;2023-04-06T04:05:27;14.53;;;10.60;;
1026;SDS011;502;48.746;9.214;2023-04-06T04:07:54;12.87;;;9.23;;
1026;SDS011;502;48.746;9.214;2023-04-06T04:10:25;11.97;;;8.80;;
1026;SDS011;502;48.746;9.214;2023-04-06T04:12:52;14.07;;;9.43;;
1026;SDS011;502;48.746;9.214;2023-04-06T04:15:19;12.90;;;8.37;;
1026;SDS011;502;48.746;9.214;2023-04-06T04:17:46;11.60;;;8.77;;
1026;SDS011;502;48.746;9.214;2023-04-06T04:20:15;14.20;;;9.93;;
1026;SDS011;502;48.746;9.214;2023-04-06T04:22:43;13.67;;;9.87;;
1026;SDS011;502;48.746;9.214;2023-04-06T04:25:10;11.50;;;8.90;;
1026;SDS011;502;48.746;9.214;2023-04-06T04:27:42;10.20;;;8.97;;
1026;SDS011;502;48.746;9.214;2023-04-06T04:30:10;12.27;;;9.00;;
1026;SDS011;502;48.746;9.214;2023-04-06T04:32:37;12.33;;;8.73;;
1026;SDS011;502;48.746;9.214;2023-04-06T04:35:06;13.03;;;9.40;;
1026;SDS011;502;48.746;9.214;2023-04-06T04:37:37;10.97;;;9.27;;
1026;SDS011;502;48.746;9.214;2023-04-06T04:40:05;13.63;;;9.03;;
1026;SDS011;502;48.746;9.214;2023-04-06T04:42:42;10.97;;;9.30;;
1026;SDS011;502;48.746;9.214;2023-04-06T04:45:16;13.77;;;9.63;;
1026;SDS011;502;48.746;9.214;2023-04-06T04:47:43;13.80;;;9.20;;
1026;SDS011;502;48.746;9.214;2023-04-06T04:50:13;9.87;;;8.53;;
1026;SDS011;502;48.746;9.214;2023-04-06T04:52:44;15.10;;;10.00;;
1026;SDS011;502;48.746;9.214;2023-04-06T04:55:23;11.17;;;9.33;;
1026;SDS011;502;48.746;9.214;2023-04-06T04:57:53;13.57;;;9.87;;
1026;SDS011;502;48.746;9.214;2023-04-06T05:00:26;11.00;;;8.37;;
1026;SDS011;502;48.746;9.214;2023-04-06T05:02:56;10.97;;;8.97;;
1026;SDS011;502;48.746;9.214;2023-04-06T05:05:26;13.00;;;9.80;;
1026;SDS011;502;48.746;9.214;2023-04-06T05:07:54;11.63;;;9.10;;
1026;SDS011;502;48.746;9.214;2023-04-06T05:10:38;11.30;;;8.90;;
1026;SDS011;502;48.746;9.214;2023-04-06T05:13:05;12.07;;;8.67;;
1026;SDS011;502;48.746;9.214;2023-04-06T05:15:32;19.10;;;10.17;;
1026;SDS011;502;48.746;9.214;2023-04-06T05:18:07;14.97;;;10.80;;
1026;SDS011;502;48.746;9.214;2023-04-06T05:20:34;13.10;;;9.70;;
1026;SDS011;502;48.746;9.214;2023-04-06T05:23:03;15.17;;;10.00;;
1026;SDS011;502;48.746;9.214;2023-04-06T05:25:30;12.60;;;8.60;;
1026;SDS011;502;48.746;9.214;2023-04-06T05:28:06;11.57;;;9.67;;
1026;SDS011;502;48.746;9.214;2023-04-06T05:30:36;13.67;;;10.53;;
1026;SDS011;502;48.746;9.214;2023-04-06T05:33:03;12.57;;;9.20;;
1026;SDS011;502;48.746;9.214;2023-04-06T05:35:43;12.63;;;9.90;;
1026;SDS011;502;48.746;9.214;2023-04-06T05:38:13;13.43;;;9.57;;
1026;SDS011;502;48.746;9.214;2023-04-06T05:40:40;15.70;;;11.17;;
1026;SDS011;502;48.746;9.214;2023-04-06T05:43:12;12.10;;;9.33;;
1026;SDS011;502;48.746;9.214;2023-04-06T05:45:43;12.67;;;9.50;;
1026;SDS011;502;48.746;9.214;2023-04-06T05:48:10;13.60;;;9.70;;
1026;SDS011;502;48.746;9.214;2023-04-06T05:50:37;12.07;;;9.70;;
1026;SDS011;502;48.746;9.214;2023-04-06T05:53:05;12.03;;;9.37;;
1026;SDS011;502;48.746;9.214;2023-04-06T05:55:39;11.37;;;9.00;;
1026;SDS011;502;48.746;9.214;2023-04-06T05:58:16;11.67;;;9.10;;
1026;SDS011;502;48.746;9.214;2023-04-06T06:00:44;13.60;;;10.47;;
1026;SDS011;502;48.746;9.214;2023-04-06T06:03:14;12.37;;;9.17;;
1026;SDS011;502;48.746;9.214;2023-04-06T06:05:47;13.37;;;10.33;;
1026;SDS011;502;48.746;9.214;2023-04-06T06:08:20;13.27;;;9.93;;
1026;SDS011;502;48.746;9.214;2023-04-06T06:10:50;12.70;;;9.93;;
1026;SDS011;502;48.746;9.214;2023-04-06T06:13:20;14.40;;;10.60;;
1026;SDS011;502;48.746;9.214;2023-04-06T06:15:47;14.47;;;10.67;;
1026;SDS011;502;48.746;9.214;2023-04-06T06:18:16;15.67;;;11.80;;
1026;SDS011;502;48.746;9.214;2023-04-06T06:20:44;17.43;;;11.00;;
1026;SDS011;502;48.746;9.214;2023-04-06T06:23:11;14.50;;;10.90;;
1026;SDS011;502;48.746;9.214;2023-04-06T06:25:38;18.47;;;12.90;;
1026;SDS011;502;48.746;9.214;2023-04-06T06:28:07;11.20;;;9.80;;
1026;SDS011;502;48.746;9.214;2023-04-06T06:30:34;13.90;;;10.93;;
1026;SDS011;502;48.746;9.214;2023-04-06T06:33:01;17.03;;;12.07;;
1026;SDS011;502;48.746;9.214;2023-04-06T06:35:29;13.67;;;10.67;;
1026;SDS011;502;48.746;9.214;2023-04-06T06:38:00;17.30;;;12.00;;
1026;SDS011;502;48.746;9.214;2023-04-06T06:40:26;13.80;;;10.83;;
1026;SDS011;502;48.746;9.214;2023-04-06T06:42:54;12.67;;;11.27;;
1026;SDS011;502;48.746;9.214;2023-04-06T06:45:34;12.67;;;11.20;;
1026;SDS011;502;48.746;9.214;2023-04-06T06:48:01;12.80;;;11.40;;
1026;SDS011;502;48.746;9.214;2023-04-06T06:50:28;14.37;;;11.63;;
1026;SDS011;502;48.746;9.214;2023-04-06T06:52:55;14.67;;;11.10;;
1026;SDS011;502;48.746;9.214;2023-04-06T06:55:21;14.07;;;11.97;;
1026;SDS011;502;48.746;9.214;2023-04-06T06:57:48;15.23;;;11.73;;
1026;SDS011;502;48.746;9.214;2023-04-06T07:00:16;14.40;;;11.50;;
1026;SDS011;502;48.746;9.214;2023-04-06T07:02:46;12.87;;;11.53;;
1026;SDS011;502;48.746;9.214;2023-04-06T07:05:13;17.13;;;12.20;;
1026;SDS011;502;48.746;9.214;2023-04-06T07:07:41;16.53;;;13.53;;
1026;SDS011;502;48.746;9.214;2023-04-06T07:10:08;13.60;;;12.07;;
1026;SDS011;502;48.746;9.214;2023-04-06T07:12:37;18.77;;;12.83;;
1026;SDS011;502;48.746;9.214;2023-04-06T07:15:04;13.50;;;11.87;;
1026;SDS011;502;48.746;9.214;2023-04-06T07:17:33;13.30;;;10.93;;
1026;SDS011;502;48.746;9.214;2023-04-06T07:20:01;13.33;;;11.17;;
1026;SDS011;502;48.746;9.214;2023-04-06T07:22:30;14.77;;;12.53;;
1026;SDS011;502;48.746;9.214;2023-04-06T07:24:57;14.67;;;12.80;;
1026;SDS011;502;48.746;9.214;2023-04-06T07:27:24;16.10;;;12.73;;
1026;SDS011;502;48.746;9.214;2023-04-06T07:29:51;13.37;;;11.53;;
1026;SDS011;502;48.746;9.214;2023-04-06T07:32:18;15.67;;;12.17;;
1026;SDS011;502;48.746;9.214;2023-04-06T07:34:45;12.37;;;11.07;;
1026;SDS011;502;48.746;9.214;2023-04-06T07:37:13;18.90;;;12.10;;
1026;SDS011;502;48.746;9.214;2023-04-06T07:39:41;14.93;;;12.70;;
1026;SDS011;502;48.746;9.214;2023-04-06T07:42:08;13.77;;;11.33;;
1026;SDS011;502;48.746;9.214;2023-04-06T07:44:36;16.97;;;12.57;;
1026;SDS011;502;48.746;9.214;2023-04-06T07:47:03;14.50;;;11.50;;
1026;SDS011;502;48.746;9.214;2023-04-06T07:49:30;12.87;;;10.97;;
1026;SDS011;502;48.746;9.214;2023-04-06T07:51:58;13.23;;;11.80;;
1026;SDS011;502;48.746;9.214;2023-04-06T07:54:27;15.83;;;12.30;;
1026;SDS011;502;48.746;9.214;2023-04-06T07:56:54;15.13;;;12.20;;
1026;SDS011;502;48.746;9.214;2023-04-06T07:59:21;15.53;;;11.97;;
1026;SDS011;502;48.746;9.214;2023-04-06T08:01:48;12.97;;;11.50;;
1026;SDS011;502;48.746;9.214;2023-04-06T08:04:15;16.80;;;12.77;;
1026;SDS011;502;48.746;9.214;2023-04-06T08:06:42;13.87;;;12.00;;
1026;SDS011;502;48.746;9.214;2023-04-06T08:09:09;14.63;;;11.63;;
1026;SDS011;502;48.746;9.214;2023-04-06T08:11:37;17.07;;;13.40;;
1026;SDS011;502;48.746;9.214;2023-04-06T08:14:04;13.30;;;11.90;;
1026;SDS011;502;48.746;9.214;2023-04-06T08:16:30;12.93;;;11.33;;
1026;SDS011;502;48.746;9.214;2023-04-06T08:18:57;14.13;;;11.90;;
1026;SDS011;502;48.746;9.214;2023-04-06T08:21:24;15.53;;;12.57;;
1026;SDS011;502;48.746;9.214;2023-04-06T08:23:51;14.10;;;11.50;;
1026;SDS011;502;48.746;9.214;2023-04-06T08:26:18;14.30;;;11.67;;
1026;SDS011;502;48.746;9.214;2023-04-06T08:28:46;14.10;;;12.60;;
1026;SDS011;502;48.746;9.214;2023-04-06T08:31:13;14.13;;;12.43;;
1026;SDS011;502;48.746;9.214;2023-04-06T08:33:40;12.83;;;11.53;;
1026;SDS011;502;48.746;9.214;2023-04-06T08:36:08;15.30;;;12.40;;
1026;SDS011;502;48.746;9.214;2023-04-06T08:38:35;16.23;;;12.83;;
1026;SDS011;502;48.746;9.214;2023-04-06T08:41:06;13.20;;;11.80;;
1026;SDS011;502;48.746;9.214;2023-04-06T08:43:34;14.30;;;11.80;;
1026;SDS011;502;48.746;9.214;2023-04-06T08:46:11;14.60;;;11.33;;
1026;SDS011;502;48.746;9.214;2023-04-06T08:48:38;13.00;;;11.70;;
1026;SDS011;502;48.746;9.214;2023-04-06T08:51:07;13.57;;;11.70;;
1026;SDS011;502;48.746;9.214;2023-04-06T08:53:34;11.87;;;10.40;;
1026;SDS011;502;48.746;9.214;2023-04-06T08:56:01;12.67;;;11.30;;
1026;SDS011;502;48.746;9.214;2023-04-06T08:58:31;12.23;;;10.93;;
1026;SDS011;502;48.746;9.214;2023-04-06T09:00:59;12.77;;;11.47;;
1026;SDS011;502;48.746;9.214;2023-04-06T09:03:28;10.90;;;9.57;;
1026;SDS011;502;48.746;9.214;2023-04-06T09:05:57;13.10;;;10.13;;
1026;SDS011;502;48.746;9.214;2023-04-06T09:08:24;12.73;;;11.17;;
1026;SDS011;502;48.746;9.214;2023-04-06T09:10:51;13.20;;;11.10;;
1026;SDS011;502;48.746;9.214;2023-04-06T09:13:19;11.00;;;9.40;;
1026;SDS011;502;48.746;9.214;2023-04-06T09:15:46;11.57;;;9.77;;
1026;SDS011;502;48.746;9.214;2023-04-06T09:18:13;14.90;;;9.97;;
1026;SDS011;502;48.746;9.214;2023-04-06T09:20:42;12.50;;;10.50;;
1026;SDS011;502;48.746;9.214;2023-04-06T09:23:17;14.73;;;10.03;;
1026;SDS011;502;48.746;9.214;2023-04-06T09:25:44;14.00;;;9.40;;
1026;SDS011;502;48.746;9.214;2023-04-06T09:28:11;13.53;;;9.80;;
1026;SDS011;502;48.746;9.214;2023-04-06T09:30:47;12.83;;;10.50;;
1026;SDS011;502;48.746;9.214;2023-04-06T09:33:21;10.77;;;9.67;;
1026;SDS011;502;48.746;9.214;2023-04-06T09:35:50;12.20;;;10.33;;
1026;SDS011;502;48.746;9.214;2023-04-06T09:38:17;12.37;;;10.20;;
1026;SDS011;502;48.746;9.214;2023-04-06T09:40:48;10.87;;;9.40;;
1026;SDS011;502;48.746;9.214;2023-04-06T09:43:23;12.20;;;10.30;;
1026;SDS011;502;48.746;9.214;2023-04-06T09:45:50;14.30;;;10.47;;
1026;SDS011;502;48.746;9.214;2023-04-06T09:48:18;9.00;;;7.60;;
1026;SDS011;502;48.746;9.214;2023-04-06T09:50:46;11.40;;;8.23;;
1026;SDS011;502;48.746;9.214;2023-04-06T09:53:14;9.27;;;8.27;;
1026;SDS011;502;48.746;9.214;2023-04-06T09:55:43;11.27;;;7.53;;
1026;SDS011;502;48.746;9.214;2023-04-06T09:58:10;8.80;;;6.97;;
1026;SDS011;502;48.746;9.214;2023-04-06T10:00:42;8.37;;;7.30;;
1026;SDS011;502;48.746;9.214;2023-04-06T10:03:13;14.97;;;10.27;;
1026;SDS011;502;48.746;9.214;2023-04-06T10:05:45;12.40;;;9.80;;
1026;SDS011;502;48.746;9.214;2023-04-06T10:08:16;9.23;;;8.33;;
1026;SDS011;502;48.746;9.214;2023-04-06T10:10:44;11.00;;;8.60;;
1026;SDS011;502;48.746;9.214;2023-04-06T10:13:11;7.30;;;6.47;;
1026;SDS011;502;48.746;9.214;2023-04-06T10:15:38;11.33;;;9.40;;
1026;SDS011;502;48.746;9.214;2023-04-06T10:18:05;9.57;;;8.10;;
1026;SDS011;502;48.746;9.214;2023-04-06T10:20:34;11.53;;;9.40;;
1026;SDS011;502;48.746;9.214;2023-04-06T10:23:04;10.33;;;7.80;;
1026;SDS011;502;48.746;9.214;2023-04-06T10:25:36;12.90;;;7.77;;
1026;SDS011;502;48.746;9.214;2023-04-06T10:28:04;9.93;;;7.70;;
1026;SDS011;502;48.746;9.214;2023-04-06T10:30:32;9.03;;;7.60;;
1026;SDS011;502;48.746;9.214;2023-04-06T10:32:59;8.30;;;6.50;;
1026;SDS011;502;48.746;9.214;2023-04-06T10:35:35;12.00;;;8.10;;
1026;SDS011;502;48.746;9.214;2023-04-06T10:38:03;9.60;;;7.90;;
1026;SDS011;502;48.746;9.214;2023-04-06T10:40:31;8.87;;;7.40;;
1026;SDS011;502;48.746;9.214;2023-04-06T10:43:08;8.50;;;7.07;;
1026;SDS011;502;48.746;9.214;2023-04-06T10:45:36;12.03;;;7.60;;
1026;SDS011;502;48.746;9.214;2023-04-06T10:48:15;9.97;;;8.17;;
1026;SDS011;502;48.746;9.214;2023-04-06T10:50:44;8.93;;;7.50;;
1026;SDS011;502;48.746;9.214;2023-04-06T10:53:11;9.57;;;7.20;;
1026;SDS011;502;48.746;9.214;2023-04-06T10:55:49;8.93;;;7.37;;
1026;SDS011;502;48.746;9.214;2023-04-06T10:58:18;7.40;;;6.43;;
1026;SDS011;502;48.746;9.214;2023-04-06T11:00:45;8.80;;;7.90;;
1026;SDS011;502;48.746;9.214;2023-04-06T11:03:13;11.00;;;8.23;;
1026;SDS011;502;48.746;9.214;2023-04-06T11:05:43;10.73;;;8.43;;
1026;SDS011;502;48.746;9.214;2023-04-06T11:08:10;11.33;;;8.97;;
1026;SDS011;502;48.746;9.214;2023-04-06T11:10:37;10.87;;;8.87;;
1026;SDS011;502;48.746;9.214;2023-04-06T11:13:03;9.13;;;8.23;;
1026;SDS011;502;48.746;9.214;2023-04-06T11:15:35;9.53;;;7.97;;
1026;SDS011;502;48.746;9.214;2023-04-06T11:18:03;9.27;;;7.50;;
1026;SDS011;502;48.746;9.214;2023-04-06T11:20:30;9.67;;;6.80;;
1026;SDS011;502;48.746;9.214;2023-04-06T11:22:57;10.60;;;7.80;;
1026;SDS011;502;48.746;9.214;2023-04-06T11:25:25;9.03;;;8.10;;
1026;SDS011;502;48.746;9.214;2023-04-06T11:27:53;10.57;;;8.10;;
1026;SDS011;502;48.746;9.214;2023-04-06T11:30:20;8.10;;;6.60;;
1026;SDS011;502;48.746;9.214;2023-04-06T11:32:48;9.00;;;7.47;;
1026;SDS011;502;48.746;9.214;2023-04-06T11:35:21;8.10;;;6.43;;
1026;SDS011;502;48.746;9.214;2023-04-06T11:37:50;7.93;;;6.70;;
1026;SDS011;502;48.746;9.214;2023-04-06T11:40:20;10.40;;;6.90;;
1026;SDS011;502;48.746;9.214;2023-04-06T11:42:51;9.13;;;6.97;;
1026;SDS011;502;48.746;9.214;2023-04-06T11:45:18;8.23;;;6.13;;
1026;SDS011;502;48.746;9.214;2023-04-06T11:47:45;8.23;;;7.07;;
1026;SDS011;502;48.746;9.214;2023-04-06T11:50:24;7.30;;;5.93;;
1026;SDS011;502;48.746;9.214;2023-04-06T11:52:57;8.10;;;6.30;;
1026;SDS011;502;48.746;9.214;2023-04-06T11:55:25;6.03;;;5.20;;
1026;SDS011;502;48.746;9.214;2023-04-06T11:57:52;8.17;;;5.97;;
1026;SDS011;502;48.746;9.214;2023-04-06T12:00:19;6.93;;;5.50;;
1026;SDS011;502;48.746;9.214;2023-04-06T12:02:47;9.20;;;7.10;;
1026;SDS011;502;48.746;9.214;2023-04-06T12:05:16;7.20;;;5.90;;
1026;SDS011;502;48.746;9.214;2023-04-06T12:07:43;8.47;;;6.87;;
1026;SDS011;502;48.746;9.214;2023-04-06T12:10:11;12.07;;;6.43;;
1026;SDS011;502;48.746;9.214;2023-04-06T12:12:38;7.00;;;6.10;;
1026;SDS011;502;48.746;9.214;2023-04-06T12:15:05;8.17;;;6.20;;
1026;SDS011;502;48.746;9.214;2023-04-06T12:17:33;6.60;;;5.90;;
1026;SDS011;502;48.746;9.214;2023-04-06T12:20:00;9.40;;;6.40;;
1026;SDS011;502;48.746;9.214;2023-04-06T12:22:29;8.03;;;6.70;;
1026;SDS011;502;48.746;9.214;2023-04-06T12:24:56;6.93;;;6.23;;
1026;SDS011;502;48.746;9.214;2023-04-06T12:27:23;11.13;;;9.43;;
1026;SDS011;502;48.746;9.214;2023-04-06T12:29:50;8.97;;;6.43;;
1026;SDS011;502;48.746;9.214;2023-04-06T12:32:17;8.80;;;6.27;;
1026;SDS011;502;48.746;9.214;2023-04-06T12:34:44;8.73;;;7.03;;
1026;SDS011;502;48.746;9.214;2023-04-06T12:37:11;7.60;;;6.83;;
1026;SDS011;502;48.746;9.214;2023-04-06T12:39:39;8.63;;;6.50;;
1026;SDS011;502;48.746;9.214;2023-04-06T12:42:06;8.60;;;7.03;;
1026;SDS011;502;48.746;9.214;2023-04-06T12:44:34;7.43;;;6.53;;
1026;SDS011;502;48.746;9.214;2023-04-06T12:47:01;7.07;;;6.37;;
1026;SDS011;502;48.746;9.214;2023-04-06T12:49:28;7.10;;;6.07;;
1026;SDS011;502;48.746;9.214;2023-04-06T12:51:55;9.40;;;7.10;;
1026;SDS011;502;48.746;9.214;2023-04-06T12:54:22;8.53;;;6.80;;
1026;SDS011;502;48.746;9.214;2023-04-06T12:56:53;8.80;;;6.00;;
1026;SDS011;502;48.746;9.214;2023-04-06T12:59:21;8.40;;;6.43;;
1026;SDS011;502;48.746;9.214;2023-04-06T13:01:50;8.47;;;7.20;;
1026;SDS011;502;48.746;9.214;2023-04-06T13:04:17;6.67;;;5.70;;
1026;SDS011;502;48.746;9.214;2023-04-06T13:06:44;6.80;;;5.87;;
1026;SDS011;502;48.746;9.214;2023-04-06T13:09:11;8.40;;;6.70;;
1026;SDS011;502;48.746;9.214;2023-04-06T13:11:38;6.53;;;5.80;;
1026;SDS011;502;48.746;9.214;2023-04-06T13:14:10;6.30;;;5.10;;
1026;SDS011;502;48.746;9.214;2023-04-06T13:16:37;11.90;;;6.87;;
1026;SDS011;502;48.746;9.214;2023-04-06T13:19:04;7.50;;;6.67;;
1026;SDS011;502;48.746;9.214;2023-04-06T13:21:31;9.97;;;6.27;;
1026;SDS011;502;48.746;9.214;2023-04-06T13:23:58;6.87;;;5.90;;
1026;SDS011;502;48.746;9.214;2023-04-06T13:26:25;7.33;;;5.30;;
1026;SDS011;502;48.746;9.214;2023-04-06T13:28:52;6.47;;;5.57;;
1026;SDS011;502;48.746;9.214;2023-04-06T13:31:23;7.17;;;5.50;;
1026;SDS011;502;48.746;9.214;2023-04-06T13:33:50;6.97;;;5.30;;
1026;SDS011;502;48.746;9.214;2023-04-06T13:36:17;7.70;;;5.83;;
1026;SDS011;502;48.746;9.214;2023-04-06T13:38:45;7.80;;;6.10;;
1026;SDS011;502;48.746;9.214;2023-04-06T13:41:17;6.40;;;5.60;;
1026;SDS011;502;48.746;9.214;2023-04-06T13:43:46;7.53;;;5.50;;
1026;SDS011;502;48.746;9.214;2023-04-06T13:46:12;6.30;;;5.70;;
1026;SDS011;502;48.746;9.214;2023-04-06T13:48:41;7.83;;;5.70;;
1026;SDS011;502;48.746;9.214;2023-04-06T13:51:08;7.40;;;5.90;;
1026;SDS011;502;48.746;9.214;2023-04-06T13:53:35;8.63;;;6.47;;
1026;SDS011;502;48.746;9.214;2023-04-06T13:56:02;6.97;;;5.40;;
1026;SDS011;502;48.746;9.214;2023-04-06T13:58:29;7.03;;;6.33;;
1026;SDS011;502;48.746;9.214;2023-04-06T14:01:01;8.10;;;6.00;;
1026;SDS011;502;48.746;9.214;2023-04-06T14:03:28;7.27;;;6.10;;
1026;SDS011;502;48.746;9.214;2023-04-06T14:05:56;7.13;;;5.73;;
1026;SDS011;502;48.746;9.214;2023-04-06T14:08:23;6.50;;;5.43;;
1026;SDS011;502;48.746;9.214;2023-04-06T14:10:49;7.10;;;5.30;;
1026;SDS011;502;48.746;9.214;2023-04-06T14:13:16;6.27;;;5.67;;
1026;SDS011;502;48.746;9.214;2023-04-06T14:15:44;6.87;;;5.77;;
1026;SDS011;502;48.746;9.214;2023-04-06T14:18:11;7.87;;;5.37;;
1026;SDS011;502;48.746;9.214;2023-04-06T14:20:38;7.53;;;5.90;;
1026;SDS011;502;48.746;9.214;2023-04-06T14:23:06;6.53;;;5.83;;
1026;SDS011;502;48.746;9.214;2023-04-06T14:25:33;6.70;;;6.00;;
1026;SDS011;502;48.746;9.214;2023-04-06T14:28:00;7.43;;;5.37;;
1026;SDS011;502;48.746;9.214;2023-04-06T14:30:27;6.53;;;5.40;;
1026;SDS011;502;48.746;9.214;2023-04-06T14:32:56;5.83;;;5.23;;
1026;SDS011;502;48.746;9.214;2023-04-06T14:35:23;8.17;;;6.50;;
1026;SDS011;502;48.746;9.214;2023-04-06T14:37:50;7.00;;;5.70;;
1026;SDS011;502;48.746;9.214;2023-04-06T14:40:19;6.63;;;4.97;;
1026;SDS011;502;48.746;9.214;2023-04-06T14:42:46;6.57;;;5.30;;
1026;SDS011;502;48.746;9.214;2023-04-06T14:45:12;7.20;;;6.03;;
1026;SDS011;502;48.746;9.214;2023-04-06T14:47:39;6.33;;;5.63;;
1026;SDS011;502;48.746;9.214;2023-04-06T14:50:07;9.30;;;6.67;;
1026;SDS011;502;48.746;9.214;2023-04-06T14:52:34;8.37;;;6.43;;
1026;SDS011;502;48.746;9.214;2023-04-06T14:55:01;8.70;;;6.10;;
1026;SDS011;502;48.746;9.214;2023-04-06T14:57:30;8.43;;;7.37;;
1026;SDS011;502;48.746;9.214;2023-04-06T14:59:57;7.70;;;6.13;;
1026;SDS011;502;48.746;9.214;2023-04-06T15:02:24;7.50;;;6.00;;
1026;SDS011;502;48.746;9.214;2023-04-06T15:04:51;9.07;;;5.63;;
1026;SDS011;502;48.746;9.214;2023-04-06T15:07:17;6.47;;;5.20;;
1026;SDS011;502;48.746;9.214;2023-04-06T15:09:44;8.63;;;6.57;;
1026;SDS011;502;48.746;9.214;2023-04-06T15:12:11;7.20;;;5.90;;
1026;SDS011;502;48.746;9.214;2023-04-06T15:14:39;6.77;;;5.63;;
1026;SDS011;502;48.746;9.214;2023-04-06T15:17:06;7.83;;;6.07;;
1026;SDS011;502;48.746;9.214;2023-04-06T15:19:33;7.80;;;6.17;;
1026;SDS011;502;48.746;9.214;2023-04-06T15:21:59;9.70;;;6.37;;
1026;SDS011;502;48.746;9.214;2023-04-06T15:24:26;9.80;;;7.57;;